Time;durP1;ratioP1;P1;durP2;ratioP2;P2;SDS_P1;SDS_P2;PMS_P1;PMS_P2;Temp;Humidity;BMP_temperature;BMP_pressure;BME280_temperature;BME280_humidity;BME280_pressure;Samples;Min_cycle;Max_cycle;Signal;HPM_P1;HPM_P2
2023/05/14 00:00:41;;;;;;;0.20;0.20;;;11.60;82.90;;;;;;5012135;28;20045;-63
2023/05/14 00:03:07;;;;;;;0.35;0.35;;;11.60;83.10;;;;;;5012085;28;20486;-64
2023/05/14 00:05:33;;;;;;;0.47;0.17;;;11.50;83.10;;;;;;5012307;28;20042;-63
2023/05/14 00:07:58;;;;;;;0.10;0.10;;;11.60;83.00;;;;;;5012222;28;20046;-63
2023/05/14 00:10:25;;;;;;;0.00;0.00;;;11.60;83.10;;;;;;5011423;28;20061;-63
2023/05/14 00:12:51;;;;;;;0.03;0.03;;;11.60;83.30;;;;;;5012159;28;20072;-63
2023/05/14 00:15:16;;;;;;;0.00;0.00;;;11.50;83.70;;;;;;5011974;28;20038;-63
2023/05/14 00:17:42;;;;;;;0.00;0.00;;;11.50;83.70;;;;;;5012306;28;20054;-63
2023/05/14 00:20:08;;;;;;;0.00;0.00;;;11.60;83.60;;;;;;5010280;28;20487;-63
2023/05/14 00:22:33;;;;;;;0.00;0.00;;;11.60;83.70;;;;;;5011667;28;20038;-63
2023/05/14 00:24:59;;;;;;;0.00;0.00;;;11.50;83.70;;;;;;5011869;28;20045;-63
2023/05/14 00:27:25;;;;;;;0.00;0.00;;;11.50;84.00;;;;;;5011450;28;20093;-63
2023/05/14 00:29:50;;;;;;;0.00;0.00;;;11.50;84.10;;;;;;5012075;28;20069;-63
2023/05/14 00:32:16;;;;;;;0.03;0.03;;;11.40;84.30;;;;;;5009467;28;20046;-63
2023/05/14 00:34:42;;;;;;;0.00;0.00;;;11.50;84.40;;;;;;5011386;28;20064;-63
2023/05/14 00:37:07;;;;;;;0.00;0.00;;;11.50;84.40;;;;;;5011458;28;20042;-64
2023/05/14 00:39:33;;;;;;;0.00;0.00;;;11.40;84.30;;;;;;4994150;28;20049;-63
2023/05/14 00:41:59;;;;;;;0.00;0.00;;;11.50;84.30;;;;;;5011710;28;20042;-63
2023/05/14 00:44:24;;;;;;;0.00;0.00;;;11.40;84.60;;;;;;5009966;28;20510;-64
2023/05/14 00:46:51;;;;;;;0.00;0.00;;;11.40;84.60;;;;;;5011401;28;20038;-63
2023/05/14 00:49:16;;;;;;;1.75;0.65;;;11.40;84.60;;;;;;5009839;28;20499;-63
2023/05/14 00:51:45;;;;;;;0.00;0.00;;;11.40;84.70;;;;;;5011262;28;20038;-62
2023/05/14 00:54:13;;;;;;;0.05;0.05;;;11.30;84.90;;;;;;5011456;28;20053;-63
2023/05/14 00:56:38;;;;;;;0.00;0.00;;;11.40;85.00;;;;;;5011281;28;20053;-63
2023/05/14 00:59:04;;;;;;;0.20;0.20;;;11.40;84.70;;;;;;5010500;28;20494;-63
2023/05/14 01:01:30;;;;;;;0.25;0.25;;;11.40;84.80;;;;;;5011343;28;20046;-63
2023/05/14 01:03:56;;;;;;;0.00;0.00;;;11.40;84.80;;;;;;5011253;28;20184;-63
2023/05/14 01:06:54;;;;;;;0.10;0.10;;;11.40;84.90;;;;;;5010959;28;20034;-63
2023/05/14 01:09:31;;;;;;;0.63;0.63;;;11.30;84.80;;;;;;5009640;28;20045;-63
2023/05/14 01:12:05;;;;;;;0.00;0.00;;;11.40;84.90;;;;;;5009997;28;20130;-63
2023/05/14 01:14:58;;;;;;;0.10;0.10;;;11.40;85.00;;;;;;5010931;28;20052;-63
2023/05/14 01:17:28;;;;;;;0.10;0.10;;;11.30;85.10;;;;;;5006664;28;20196;-63
2023/05/14 01:19:55;;;;;;;3.92;1.02;;;11.30;84.90;;;;;;5010425;28;20498;-63
2023/05/14 01:22:20;;;;;;;0.00;0.00;;;11.30;85.00;;;;;;5009224;28;20038;-63
2023/05/14 01:24:46;;;;;;;0.00;0.00;;;11.30;85.10;;;;;;5010750;28;20041;-64
2023/05/14 01:27:17;;;;;;;0.00;0.00;;;11.30;85.20;;;;;;5010485;28;20175;-63
2023/05/14 01:30:02;;;;;;;0.00;0.00;;;11.30;85.40;;;;;;5010763;28;20096;-63
2023/05/14 01:32:29;;;;;;;0.00;0.00;;;11.30;85.30;;;;;;5010228;28;20285;-64
2023/05/14 01:34:58;;;;;;;0.00;0.00;;;11.30;85.30;;;;;;5010617;28;20037;-63
2023/05/14 01:37:26;;;;;;;0.00;0.00;;;11.30;85.60;;;;;;5008886;28;20056;-63
2023/05/14 01:39:53;;;;;;;0.00;0.00;;;11.20;85.40;;;;;;5010600;28;20042;-63
2023/05/14 01:42:19;;;;;;;0.00;0.00;;;11.20;85.40;;;;;;5010328;28;20037;-63
2023/05/14 01:44:45;;;;;;;0.00;0.00;;;11.20;85.50;;;;;;5010578;28;20060;-63
2023/05/14 01:47:10;;;;;;;0.05;0.05;;;11.30;85.50;;;;;;5009788;28;20141;-63
2023/05/14 01:49:36;;;;;;;0.00;0.00;;;11.20;85.50;;;;;;5010214;28;20057;-63
2023/05/14 01:52:02;;;;;;;0.00;0.00;;;11.20;85.50;;;;;;5010075;28;20045;-63
2023/05/14 01:54:27;;;;;;;0.20;0.20;;;11.30;85.60;;;;;;5009975;28;20116;-63
2023/05/14 01:56:53;;;;;;;0.20;0.20;;;11.20;85.80;;;;;;5009897;28;20042;-63
2023/05/14 01:59:18;;;;;;;0.00;0.00;;;11.20;86.10;;;;;;5010052;28;20121;-63
2023/05/14 02:01:44;;;;;;;0.00;0.00;;;11.20;86.00;;;;;;5010178;28;20042;-63
2023/05/14 02:04:09;;;;;;;0.00;0.00;;;11.20;86.00;;;;;;5010109;28;20473;-64
2023/05/14 02:06:35;;;;;;;0.00;0.00;;;11.30;85.90;;;;;;5009778;28;20038;-63
2023/05/14 02:09:01;;;;;;;0.00;0.00;;;11.30;85.90;;;;;;5009942;28;20042;-63
2023/05/14 02:11:27;;;;;;;0.00;0.00;;;11.20;86.20;;;;;;5009917;28;20045;-64
2023/05/14 02:13:53;;;;;;;0.00;0.00;;;11.30;86.10;;;;;;5009941;28;20041;-63
2023/05/14 02:16:18;;;;;;;0.00;0.00;;;11.30;86.20;;;;;;5009901;28;20042;-63
2023/05/14 02:18:44;;;;;;;0.88;0.85;;;11.20;86.30;;;;;;5009641;28;21017;-63
2023/05/14 02:21:09;;;;;;;0.00;0.00;;;11.20;86.50;;;;;;5009500;28;20073;-64
2023/05/14 02:23:35;;;;;;;0.20;0.20;;;11.20;86.50;;;;;;5009694;28;20513;-64
2023/05/14 02:26:00;;;;;;;0.05;0.05;;;11.20;86.50;;;;;;5009666;28;20628;-64
2023/05/14 02:28:26;;;;;;;0.00;0.00;;;11.30;86.80;;;;;;5008103;28;20034;-64
2023/05/14 02:30:56;;;;;;;0.10;0.10;;;11.20;87.10;;;;;;5009792;28;20045;-63
2023/05/14 02:33:22;;;;;;;0.00;0.00;;;11.10;86.90;;;;;;5009511;28;20042;-64
2023/05/14 02:35:48;;;;;;;0.00;0.00;;;11.20;86.90;;;;;;5009912;28;20399;-63
2023/05/14 02:38:13;;;;;;;1.42;1.33;;;11.10;86.90;;;;;;5008230;28;20057;-63
2023/05/14 02:40:39;;;;;;;0.00;0.00;;;11.10;86.90;;;;;;5008486;28;20046;-63
2023/05/14 02:43:05;;;;;;;0.00;0.00;;;11.20;87.10;;;;;;5009219;28;20050;-63
2023/05/14 02:45:30;;;;;;;0.00;0.00;;;11.20;87.00;;;;;;5010264;28;20088;-63
2023/05/14 02:47:56;;;;;;;0.00;0.00;;;11.10;87.00;;;;;;5010170;28;20058;-63
2023/05/14 02:50:21;;;;;;;0.00;0.00;;;11.10;86.90;;;;;;5008097;28;20129;-63
2023/05/14 02:52:47;;;;;;;0.00;0.00;;;11.20;86.90;;;;;;5009373;28;20049;-63
2023/05/14 02:55:12;;;;;;;0.00;0.00;;;11.20;86.90;;;;;;5010491;28;20129;-63
2023/05/14 02:57:38;;;;;;;0.00;0.00;;;11.20;87.00;;;;;;5013182;28;20392;-63
2023/05/14 03:00:04;;;;;;;0.00;0.00;;;11.20;86.90;;;;;;5013361;28;20628;-63
2023/05/14 03:02:30;;;;;;;0.20;0.20;;;11.20;87.00;;;;;;5013201;28;20556;-63
2023/05/14 03:04:55;;;;;;;0.00;0.00;;;11.20;86.90;;;;;;5013531;28;20045;-63
2023/05/14 03:07:21;;;;;;;0.00;0.00;;;11.10;87.00;;;;;;5013143;28;20403;-63
2023/05/14 03:09:47;;;;;;;0.00;0.00;;;11.10;87.10;;;;;;5012645;28;20037;-63
2023/05/14 03:12:13;;;;;;;0.00;0.00;;;11.20;87.10;;;;;;5013134;28;20048;-63
2023/05/14 03:14:39;;;;;;;0.00;0.00;;;11.10;87.20;;;;;;5013220;28;20049;-63
2023/05/14 03:17:04;;;;;;;0.10;0.10;;;11.10;87.10;;;;;;5012648;28;20128;-63
2023/05/14 03:19:30;;;;;;;0.10;0.10;;;11.20;87.20;;;;;;5012930;28;20494;-63
2023/05/14 03:21:55;;;;;;;0.00;0.00;;;11.10;87.30;;;;;;5013282;28;20045;-63
2023/05/14 03:24:21;;;;;;;0.00;0.00;;;11.10;87.40;;;;;;5012940;28;20042;-62
2023/05/14 03:26:46;;;;;;;0.10;0.10;;;11.10;87.20;;;;;;5012313;28;20041;-63
2023/05/14 03:29:12;;;;;;;0.00;0.00;;;11.10;87.20;;;;;;5012748;28;20136;-63
2023/05/14 03:31:38;;;;;;;0.00;0.00;;;11.10;87.20;;;;;;5012822;28;20050;-63
2023/05/14 03:34:03;;;;;;;0.00;0.00;;;11.10;87.20;;;;;;5011728;28;20077;-63
2023/05/14 03:36:29;;;;;;;0.00;0.00;;;11.10;87.20;;;;;;5012424;28;20045;-62
2023/05/14 03:38:54;;;;;;;0.00;0.00;;;11.10;87.30;;;;;;5012275;28;20042;-63
2023/05/14 03:41:22;;;;;;;0.00;0.00;;;11.10;87.50;;;;;;5012490;28;20046;-63
2023/05/14 03:43:47;;;;;;;0.25;0.25;;;11.10;87.40;;;;;;5012225;28;20081;-63
2023/05/14 03:46:13;;;;;;;0.10;0.10;;;11.20;87.60;;;;;;5012527;28;20074;-63
2023/05/14 03:48:38;;;;;;;0.08;0.08;;;11.20;87.40;;;;;;5011403;28;20181;-63
2023/05/14 03:51:04;;;;;;;0.00;0.00;;;11.20;87.40;;;;;;5011969;28;20046;-63
2023/05/14 03:53:29;;;;;;;0.00;0.00;;;11.30;87.40;;;;;;5011852;28;20412;-63
2023/05/14 03:55:55;;;;;;;0.03;0.03;;;11.40;87.40;;;;;;5012364;28;20499;-63
2023/05/14 03:58:21;;;;;;;0.00;0.00;;;11.30;87.50;;;;;;5012244;28;20119;-64
2023/05/14 04:00:46;;;;;;;0.00;0.00;;;11.30;87.50;;;;;;5012105;28;20045;-63
2023/05/14 04:03:12;;;;;;;0.00;0.00;;;11.40;87.60;;;;;;5010677;28;20046;-63
2023/05/14 04:05:37;;;;;;;0.00;0.00;;;11.40;87.90;;;;;;5010758;28;20038;-64
2023/05/14 04:08:03;;;;;;;0.00;0.00;;;11.30;88.00;;;;;;5010759;28;20045;-63
2023/05/14 04:10:30;;;;;;;0.00;0.00;;;11.40;87.90;;;;;;5011774;28;20034;-63
2023/05/14 04:12:56;;;;;;;0.90;0.55;;;11.50;87.60;;;;;;5012023;28;20057;-63
2023/05/14 04:15:22;;;;;;;0.20;0.20;;;11.50;88.00;;;;;;5011499;28;20064;-64
2023/05/14 04:17:47;;;;;;;0.00;0.00;;;11.40;88.00;;;;;;5011908;28;20066;-63
2023/05/14 04:20:13;;;;;;;0.00;0.00;;;11.50;88.00;;;;;;5011833;28;20046;-63
2023/05/14 04:22:38;;;;;;;0.00;0.00;;;11.50;87.70;;;;;;5011757;28;20581;-63
2023/05/14 04:25:05;;;;;;;0.00;0.00;;;11.60;87.50;;;;;;5011700;28;20052;-63
2023/05/14 04:27:32;;;;;;;0.00;0.00;;;11.50;87.50;;;;;;5011221;28;20046;-63
2023/05/14 04:29:57;;;;;;;0.00;0.00;;;11.50;87.60;;;;;;5011845;28;20060;-63
2023/05/14 04:32:23;;;;;;;0.00;0.00;;;11.50;87.50;;;;;;5011473;28;20042;-63
2023/05/14 04:34:49;;;;;;;0.00;0.00;;;11.60;87.50;;;;;;5011592;28;20434;-63
2023/05/14 04:37:14;;;;;;;0.00;0.00;;;11.60;87.50;;;;;;5011519;28;20042;-63
2023/05/14 04:39:40;;;;;;;0.00;0.00;;;11.60;87.60;;;;;;5011200;28;20050;-63
2023/05/14 04:42:06;;;;;;;0.00;0.00;;;11.60;87.50;;;;;;5011330;28;20042;-63
2023/05/14 04:44:33;;;;;;;0.00;0.00;;;11.60;87.50;;;;;;5011310;28;20052;-63
2023/05/14 04:46:58;;;;;;;0.00;0.00;;;11.60;87.40;;;;;;5011248;28;20042;-63
2023/05/14 04:49:24;;;;;;;0.00;0.00;;;11.60;87.40;;;;;;5011042;28;20112;-63
2023/05/14 04:51:50;;;;;;;0.10;0.10;;;11.60;87.30;;;;;;5011997;28;20459;-63
2023/05/14 04:54:15;;;;;;;0.00;0.00;;;11.60;87.40;;;;;;5010992;28;20446;-63
2023/05/14 04:56:41;;;;;;;1.38;0.95;;;11.60;87.40;;;;;;5011088;28;20042;-64
2023/05/14 04:59:06;;;;;;;0.00;0.00;;;11.60;87.40;;;;;;5011089;28;20041;-63
2023/05/14 05:01:32;;;;;;;0.00;0.00;;;11.60;87.60;;;;;;5011083;28;20042;-63
2023/05/14 05:03:58;;;;;;;1.45;1.35;;;11.60;87.60;;;;;;5011369;28;20077;-64
2023/05/14 05:06:23;;;;;;;0.00;0.00;;;11.70;87.50;;;;;;5010607;28;20490;-63
2023/05/14 05:08:49;;;;;;;0.00;0.00;;;11.70;87.50;;;;;;5010813;28;20104;-63
2023/05/14 05:11:14;;;;;;;0.00;0.00;;;11.60;87.60;;;;;;5010858;28;20121;-63
2023/05/14 05:13:40;;;;;;;0.00;0.00;;;11.70;87.60;;;;;;5011031;28;20541;-63
2023/05/14 05:16:06;;;;;;;0.80;0.80;;;11.70;87.90;;;;;;5010831;28;20041;-63
2023/05/14 05:18:31;;;;;;;0.08;0.08;;;11.70;88.00;;;;;;5009929;28;20054;-63
2023/05/14 05:20:57;;;;;;;0.00;0.00;;;11.70;87.90;;;;;;5010849;28;20096;-63
2023/05/14 05:23:23;;;;;;;0.00;0.00;;;11.80;87.70;;;;;;5010454;28;20790;-63
2023/05/14 05:25:49;;;;;;;0.00;0.00;;;11.80;87.70;;;;;;5011023;28;20042;-63
2023/05/14 05:28:15;;;;;;;0.08;0.08;;;11.90;87.60;;;;;;5010697;28;20042;-62
2023/05/14 05:30:40;;;;;;;0.00;0.00;;;11.90;87.50;;;;;;5010222;28;20045;-63
2023/05/14 05:33:06;;;;;;;0.00;0.00;;;12.00;87.50;;;;;;5010515;28;20459;-63
2023/05/14 05:35:32;;;;;;;0.00;0.00;;;11.90;87.50;;;;;;5010350;28;20052;-63
2023/05/14 05:37:58;;;;;;;0.00;0.00;;;12.00;87.80;;;;;;5010545;28;20053;-64
2023/05/14 05:40:24;;;;;;;0.00;0.00;;;12.10;87.70;;;;;;5009080;28;20076;-63
2023/05/14 05:42:49;;;;;;;0.22;0.22;;;12.00;87.70;;;;;;5010202;28;20034;-63
2023/05/14 05:45:15;;;;;;;0.00;0.00;;;12.10;87.50;;;;;;5010132;28;20088;-63
2023/05/14 05:47:40;;;;;;;1.30;1.20;;;12.10;87.60;;;;;;5010099;28;20054;-63
2023/05/14 05:50:07;;;;;;;0.00;0.00;;;12.10;87.40;;;;;;5009712;28;20128;-65
2023/05/14 05:52:32;;;;;;;0.00;0.00;;;12.10;87.50;;;;;;5010253;28;20049;-63
2023/05/14 05:54:58;;;;;;;0.00;0.00;;;12.20;87.40;;;;;;5010269;28;20046;-63
2023/05/14 05:57:25;;;;;;;0.00;0.00;;;12.20;87.30;;;;;;5009930;28;20034;-63
2023/05/14 05:59:51;;;;;;;0.00;0.00;;;12.20;87.50;;;;;;5010175;28;20049;-63
2023/05/14 06:02:18;;;;;;;0.00;0.00;;;12.30;87.40;;;;;;5010255;28;20049;-63
2023/05/14 06:04:44;;;;;;;0.00;0.00;;;12.30;87.30;;;;;;5010395;28;20054;-62
2023/05/14 06:07:09;;;;;;;0.40;0.40;;;12.40;87.30;;;;;;5009785;28;20415;-62
2023/05/14 06:09:35;;;;;;;0.00;0.00;;;12.40;87.30;;;;;;5009029;28;20049;-63
2023/05/14 06:12:00;;;;;;;0.00;0.00;;;12.50;87.30;;;;;;5009753;28;20057;-62
2023/05/14 06:14:26;;;;;;;0.00;0.00;;;12.60;87.10;;;;;;5009484;28;20792;-63
2023/05/14 06:16:51;;;;;;;0.00;0.00;;;12.50;87.00;;;;;;5009799;28;20045;-63
2023/05/14 06:19:17;;;;;;;0.00;0.00;;;12.60;87.00;;;;;;5009861;28;20041;-63
2023/05/14 06:21:43;;;;;;;0.95;0.90;;;12.60;87.10;;;;;;5009653;28;20076;-63
2023/05/14 06:24:09;;;;;;;0.00;0.00;;;12.60;87.10;;;;;;5009463;28;20054;-63
2023/05/14 06:26:34;;;;;;;0.00;0.00;;;12.70;87.00;;;;;;5009278;28;20125;-63
2023/05/14 06:29:00;;;;;;;0.60;0.60;;;12.70;86.90;;;;;;5009567;28;20037;-62
2023/05/14 06:31:25;;;;;;;2.47;1.42;;;12.80;86.90;;;;;;5009053;28;20491;-63
2023/05/14 06:33:51;;;;;;;0.10;0.10;;;12.90;86.90;;;;;;5008398;28;20038;-63
2023/05/14 06:36:16;;;;;;;0.55;0.55;;;12.90;86.80;;;;;;5009313;28;20050;-62
2023/05/14 06:38:42;;;;;;;0.00;0.00;;;13.00;86.80;;;;;;5008477;28;20511;-63
2023/05/14 06:41:08;;;;;;;0.00;0.00;;;13.10;86.60;;;;;;5009397;28;20632;-63
2023/05/14 06:43:33;;;;;;;0.00;0.00;;;13.10;86.40;;;;;;5009510;28;20054;-62
2023/05/14 06:46:00;;;;;;;0.00;0.00;;;13.20;86.20;;;;;;5009625;28;20088;-63
2023/05/14 06:48:26;;;;;;;0.10;0.10;;;13.30;85.90;;;;;;5007997;28;20590;-63
2023/05/14 06:50:52;;;;;;;0.10;0.10;;;13.30;85.80;;;;;;5009630;28;20060;-63
2023/05/14 06:53:17;;;;;;;0.00;0.00;;;13.30;85.80;;;;;;5009244;28;20038;-63
2023/05/14 06:55:43;;;;;;;0.00;0.00;;;13.40;85.80;;;;;;5009659;28;20049;-63
2023/05/14 06:58:09;;;;;;;0.13;0.13;;;13.50;85.60;;;;;;5008967;28;20081;-63
2023/05/14 07:00:35;;;;;;;0.00;0.00;;;13.50;85.50;;;;;;5009324;28;20131;-63
2023/05/14 07:03:00;;;;;;;0.00;0.00;;;13.60;85.30;;;;;;5009205;28;20038;-62
2023/05/14 07:05:26;;;;;;;0.00;0.00;;;13.70;84.90;;;;;;5009350;28;20666;-63
2023/05/14 07:07:51;;;;;;;0.10;0.10;;;13.70;84.90;;;;;;5008376;28;20046;-64
2023/05/14 07:10:17;;;;;;;0.00;0.00;;;13.70;84.90;;;;;;5008818;28;20077;-63
2023/05/14 07:12:43;;;;;;;0.80;0.80;;;13.90;84.70;;;;;;5009414;28;21126;-63
2023/05/14 07:15:09;;;;;;;0.00;0.00;;;13.90;84.60;;;;;;5009229;28;20038;-63
2023/05/14 07:17:34;;;;;;;0.00;0.00;;;13.90;84.60;;;;;;5009429;28;20080;-63
2023/05/14 07:20:00;;;;;;;0.13;0.13;;;14.00;84.60;;;;;;5008837;28;20558;-63
2023/05/14 07:22:25;;;;;;;0.15;0.15;;;14.10;84.60;;;;;;5009096;28;20046;-63
2023/05/14 07:24:51;;;;;;;0.00;0.00;;;14.10;84.50;;;;;;5009248;28;20050;-63
2023/05/14 07:27:16;;;;;;;0.00;0.00;;;14.20;84.50;;;;;;5008779;28;20046;-63
2023/05/14 07:29:43;;;;;;;0.00;0.00;;;14.20;84.20;;;;;;5009183;28;20120;-63
2023/05/14 07:32:08;;;;;;;0.00;0.00;;;14.30;84.10;;;;;;5008938;28;20097;-63
2023/05/14 07:34:34;;;;;;;0.00;0.00;;;14.30;83.90;;;;;;5008194;28;20066;-63
2023/05/14 07:37:00;;;;;;;0.00;0.00;;;14.50;83.80;;;;;;5009239;28;20073;-63
2023/05/14 07:39:26;;;;;;;0.00;0.00;;;14.50;83.60;;;;;;5008898;28;20116;-63
2023/05/14 07:41:53;;;;;;;0.00;0.00;;;14.60;83.60;;;;;;5011098;28;20042;-63
2023/05/14 07:44:19;;;;;;;0.00;0.00;;;14.60;83.40;;;;;;5012492;28;20054;-63
2023/05/14 07:46:45;;;;;;;0.03;0.03;;;14.60;83.10;;;;;;5012681;28;20050;-63
2023/05/14 07:49:11;;;;;;;1.58;1.48;;;14.70;82.80;;;;;;5010760;28;20100;-63
2023/05/14 07:51:36;;;;;;;0.55;0.55;;;14.80;82.80;;;;;;5012508;28;20041;-63
2023/05/14 07:54:02;;;;;;;0.00;0.00;;;14.80;82.80;;;;;;5012105;28;20067;-63
2023/05/14 07:56:27;;;;;;;0.00;0.00;;;14.90;82.60;;;;;;5012400;28;20487;-63
2023/05/14 07:58:53;;;;;;;0.00;0.00;;;15.00;82.30;;;;;;5012351;28;20383;-64
2023/05/14 08:01:19;;;;;;;0.00;0.00;;;14.90;82.20;;;;;;5012046;28;20629;-62
2023/05/14 08:03:45;;;;;;;0.00;0.00;;;15.00;82.10;;;;;;5012303;28;20045;-63
2023/05/14 08:06:11;;;;;;;0.22;0.20;;;15.00;82.20;;;;;;5011766;28;20042;-63
2023/05/14 08:08:36;;;;;;;0.00;0.00;;;15.10;81.90;;;;;;5011916;28;20565;-63
2023/05/14 08:11:02;;;;;;;0.00;0.00;;;15.10;82.00;;;;;;5012058;28;20085;-63
2023/05/14 08:13:28;;;;;;;0.05;0.05;;;15.10;81.80;;;;;;5011849;28;20038;-63
2023/05/14 08:15:54;;;;;;;0.65;0.65;;;15.10;82.20;;;;;;5011514;28;20096;-62
2023/05/14 08:18:20;;;;;;;0.00;0.00;;;15.20;82.30;;;;;;5010606;28;20050;-63
2023/05/14 08:20:45;;;;;;;0.00;0.00;;;15.20;81.80;;;;;;5012041;28;20955;-63
2023/05/14 08:23:11;;;;;;;0.08;0.08;;;15.20;81.80;;;;;;5011633;28;20042;-62
2023/05/14 08:25:37;;;;;;;0.00;0.00;;;15.30;81.50;;;;;;5011734;28;20042;-63
2023/05/14 08:28:02;;;;;;;0.10;0.10;;;15.30;81.40;;;;;;5011453;28;20060;-63
2023/05/14 08:30:28;;;;;;;0.00;0.00;;;15.30;81.50;;;;;;5011469;28;20107;-63
2023/05/14 08:32:53;;;;;;;0.03;0.03;;;15.30;81.50;;;;;;5011601;28;20515;-63
2023/05/14 08:35:19;;;;;;;0.05;0.05;;;15.30;81.40;;;;;;5011522;28;20096;-63
2023/05/14 08:37:45;;;;;;;0.00;0.00;;;15.20;81.20;;;;;;5011646;28;20080;-63
2023/05/14 08:40:11;;;;;;;0.00;0.00;;;15.30;81.30;;;;;;5010938;28;20052;-63
2023/05/14 08:42:40;;;;;;;0.00;0.00;;;15.20;81.20;;;;;;5011583;28;20049;-63
2023/05/14 08:45:12;;;;;;;0.00;0.00;;;15.30;80.80;;;;;;5011648;28;20050;-63
2023/05/14 08:47:37;;;;;;;0.10;0.10;;;15.20;81.10;;;;;;5011511;28;20057;-62
2023/05/14 08:50:07;;;;;;;0.00;0.00;;;15.30;80.80;;;;;;5011120;28;20100;-63
2023/05/14 08:52:33;;;;;;;0.10;0.10;;;15.30;80.80;;;;;;5010028;28;20050;-63
2023/05/14 08:55:02;;;;;;;0.00;0.00;;;15.30;80.70;;;;;;5011304;28;20417;-63
2023/05/14 08:57:30;;;;;;;0.00;0.00;;;15.30;80.90;;;;;;5011328;28;20152;-63
2023/05/14 08:59:56;;;;;;;0.00;0.00;;;15.40;80.60;;;;;;5010987;28;20061;-63
2023/05/14 09:02:26;;;;;;;0.20;0.20;;;15.40;80.30;;;;;;5011042;28;20053;-63
2023/05/14 09:04:55;;;;;;;0.00;0.00;;;15.50;80.40;;;;;;5010902;28;20509;-63
2023/05/14 09:07:20;;;;;;;0.00;0.00;;;15.60;80.40;;;;;;5009911;28;20128;-62
2023/05/14 09:09:46;;;;;;;0.17;0.17;;;15.60;80.20;;;;;;5011046;28;20153;-63
2023/05/14 09:12:12;;;;;;;0.52;0.52;;;15.60;79.90;;;;;;5010442;28;20048;-62
2023/05/14 09:14:37;;;;;;;0.00;0.00;;;15.70;79.80;;;;;;4992869;28;20053;-63
2023/05/14 09:17:03;;;;;;;1.27;0.73;;;15.80;79.60;;;;;;5010886;28;20066;-62
2023/05/14 09:19:29;;;;;;;0.00;0.00;;;15.90;79.40;;;;;;5010567;28;20046;-63
2023/05/14 09:21:57;;;;;;;0.47;0.47;;;15.90;79.40;;;;;;5010855;28;20057;-62
2023/05/14 09:24:28;;;;;;;0.00;0.00;;;16.00;79.30;;;;;;5009303;28;20478;-63
2023/05/14 09:26:56;;;;;;;0.10;0.10;;;16.10;79.00;;;;;;5010613;28;20052;-63
2023/05/14 09:29:27;;;;;;;0.20;0.20;;;16.20;78.40;;;;;;5010013;28;20053;-62
2023/05/14 09:31:53;;;;;;;0.80;0.80;;;16.20;78.10;;;;;;5010592;28;20102;-63
2023/05/14 09:34:31;;;;;;;0.10;0.10;;;16.10;77.90;;;;;;5010464;28;20124;-63
2023/05/14 09:37:04;;;;;;;1.20;0.82;;;16.10;77.80;;;;;;5010455;28;20057;-63
2023/05/14 09:39:31;;;;;;;0.10;0.10;;;16.30;78.10;;;;;;5010116;28;20402;-63
2023/05/14 09:41:57;;;;;;;0.25;0.25;;;16.30;77.90;;;;;;5010444;28;20422;-63
2023/05/14 09:44:23;;;;;;;0.17;0.17;;;16.30;77.80;;;;;;5009826;28;20049;-62
2023/05/14 09:46:50;;;;;;;0.05;0.05;;;16.40;78.20;;;;;;5010172;28;20046;-63
2023/05/14 09:49:16;;;;;;;0.00;0.00;;;16.50;78.30;;;;;;5010126;28;20054;-62
2023/05/14 09:51:42;;;;;;;0.00;0.00;;;16.60;77.90;;;;;;5010156;28;20403;-63
2023/05/14 09:54:08;;;;;;;0.00;0.00;;;16.70;77.90;;;;;;5008602;28;20080;-63
2023/05/14 09:56:35;;;;;;;0.00;0.00;;;16.70;77.70;;;;;;5009916;28;20053;-63
2023/05/14 09:59:01;;;;;;;0.63;0.63;;;16.80;77.40;;;;;;5010141;28;20042;-63
2023/05/14 10:01:29;;;;;;;0.00;0.00;;;16.90;77.30;;;;;;5009951;28;20186;-63
2023/05/14 10:03:55;;;;;;;0.10;0.10;;;17.00;77.20;;;;;;5009803;28;20052;-63
2023/05/14 10:06:27;;;;;;;0.00;0.00;;;17.10;76.90;;;;;;5010018;28;20069;-62
2023/05/14 10:08:54;;;;;;;;;;;17.10;76.30;;;;;;5009211;28;20132;-62
2023/05/14 10:11:24;;;;;;;0.10;0.10;;;17.10;76.10;;;;;;5008867;28;20842;-63
2023/05/14 10:14:00;;;;;;;0.03;0.03;;;17.10;75.90;;;;;;5009884;28;20042;-63
2023/05/14 10:16:33;;;;;;;0.65;0.65;;;17.20;76.10;;;;;;5009450;28;20042;-62
2023/05/14 10:19:20;;;;;;;0.00;0.00;;;17.20;76.00;;;;;;5009763;28;20046;-63
2023/05/14 10:21:58;;;;;;;0.00;0.00;;;17.20;75.80;;;;;;5009559;28;20038;-63
2023/05/14 10:24:25;;;;;;;0.00;0.00;;;17.20;75.50;;;;;;5009613;28;20042;-62
2023/05/14 10:26:52;;;;;;;0.00;0.00;;;17.30;75.30;;;;;;5009627;28;20088;-63
2023/05/14 10:29:17;;;;;;;0.30;0.30;;;17.30;75.80;;;;;;5010032;28;20193;-63
2023/05/14 10:31:54;;;;;;;0.20;0.20;;;17.50;75.60;;;;;;5009809;28;20508;-63
2023/05/14 10:34:32;;;;;;;0.20;0.20;;;17.50;75.20;;;;;;5009531;28;20103;-63
2023/05/14 10:37:01;;;;;;;0.00;0.00;;;17.60;75.00;;;;;;5008403;28;20141;-63
2023/05/14 10:39:50;;;;;;;0.00;0.00;;;17.70;74.50;;;;;;5008481;28;20132;-63
2023/05/14 10:42:32;;;;;;;0.00;0.00;;;17.70;74.20;;;;;;5009440;28;20439;-63
2023/05/14 10:45:08;;;;;;;0.00;0.00;;;17.70;74.00;;;;;;5008202;28;20054;-62
2023/05/14 10:47:35;;;;;;;0.00;0.00;;;17.80;74.30;;;;;;5009099;28;20137;-63
2023/05/14 10:50:03;;;;;;;0.00;0.00;;;18.00;74.40;;;;;;5009327;28;20049;-62
2023/05/14 10:52:30;;;;;;;0.15;0.15;;;18.10;74.10;;;;;;5009269;28;20080;-63
2023/05/14 10:55:01;;;;;;;0.03;0.03;;;18.20;74.00;;;;;;5009458;28;20050;-64
2023/05/14 10:57:29;;;;;;;0.03;0.03;;;18.20;73.50;;;;;;5009118;28;20073;-63
2023/05/14 10:59:57;;;;;;;0.22;0.22;;;18.30;72.50;;;;;;5009425;28;20050;-63
2023/05/14 11:02:28;;;;;;;0.10;0.10;;;18.20;72.00;;;;;;5009285;28;20042;-63
2023/05/14 11:05:14;;;;;;;0.22;0.15;;;18.30;72.60;;;;;;5009308;28;20093;-63
2023/05/14 11:07:45;;;;;;;0.00;0.00;;;18.30;72.20;;;;;;5009837;28;20042;-63
2023/05/14 11:10:29;;;;;;;0.00;0.00;;;18.40;72.50;;;;;;5008954;28;20521;-63
2023/05/14 11:12:56;;;;;;;0.00;0.00;;;18.40;72.50;;;;;;5009157;28;20045;-63
2023/05/14 11:15:24;;;;;;;0.00;0.00;;;18.40;72.70;;;;;;5010297;28;20483;-63
2023/05/14 11:17:51;;;;;;;0.10;0.10;;;18.40;72.70;;;;;;5012444;28;20510;-63
2023/05/14 11:20:18;;;;;;;0.00;0.00;;;18.50;73.20;;;;;;4996423;28;20092;-64
2023/05/14 11:22:45;;;;;;;1.20;1.17;;;18.70;73.20;;;;;;5013728;28;20517;-63
2023/05/14 11:25:16;;;;;;;0.00;0.00;;;18.70;72.90;;;;;;5013753;28;20048;-63
2023/05/14 11:27:43;;;;;;;0.05;0.05;;;18.80;72.70;;;;;;5013763;28;20082;-64
2023/05/14 11:30:17;;;;;;;0.00;0.00;;;18.90;72.30;;;;;;5012184;28;20054;-64
2023/05/14 11:32:47;;;;;;;0.10;0.10;;;19.00;72.30;;;;;;5012814;28;20486;-63
2023/05/14 11:35:14;;;;;;;0.03;0.03;;;19.10;71.20;;;;;;5012691;28;20051;-63
2023/05/14 11:37:39;;;;;;;0.10;0.10;;;19.10;71.70;;;;;;5013731;28;20045;-63
2023/05/14 11:40:15;;;;;;;0.10;0.10;;;19.10;70.90;;;;;;5013346;28;20449;-63
2023/05/14 11:42:40;;;;;;;0.00;0.00;;;19.00;71.10;;;;;;5011371;28;20494;-63
2023/05/14 11:45:10;;;;;;;0.68;0.30;;;19.00;71.10;;;;;;5012150;28;20077;-63
2023/05/14 11:47:36;;;;;;;0.10;0.10;;;19.00;71.00;;;;;;5012258;28;20056;-64
2023/05/14 11:50:02;;;;;;;0.00;0.00;;;19.10;70.80;;;;;;5012450;28;20050;-63
2023/05/14 11:52:28;;;;;;;0.00;0.00;;;19.20;70.70;;;;;;5011073;28;20042;-62
2023/05/14 11:54:53;;;;;;;0.00;0.00;;;19.40;70.80;;;;;;5012427;28;20045;-63
2023/05/14 11:57:21;;;;;;;0.25;0.25;;;19.60;70.50;;;;;;5010640;28;20107;-63
2023/05/14 11:59:48;;;;;;;0.20;0.20;;;19.60;69.70;;;;;;5011218;28;20057;-63
2023/05/14 12:02:16;;;;;;;0.00;0.00;;;19.60;69.90;;;;;;5012233;28;20049;-63
2023/05/14 12:04:43;;;;;;;0.00;0.00;;;19.70;70.00;;;;;;5012239;28;20194;-62
2023/05/14 12:07:10;;;;;;;0.00;0.00;;;19.80;69.60;;;;;;5011818;28;20045;-63
2023/05/14 12:09:48;;;;;;;0.10;0.10;;;19.90;69.60;;;;;;5012140;28;20053;-63
2023/05/14 12:12:19;;;;;;;0.10;0.10;;;20.00;69.10;;;;;;5011897;28;20046;-63
2023/05/14 12:14:45;;;;;;;1.48;0.50;;;20.10;68.30;;;;;;5011926;28;20042;-63
2023/05/14 12:17:29;;;;;;;0.00;0.00;;;20.10;68.20;;;;;;5011782;28;20096;-63
2023/05/14 12:19:56;;;;;;;0.25;0.13;;;20.30;68.70;;;;;;5012028;28;20046;-63
2023/05/14 12:22:22;;;;;;;0.10;0.10;;;20.40;68.20;;;;;;5012093;28;20042;-63
2023/05/14 12:24:56;;;;;;;0.00;0.00;;;20.40;68.10;;;;;;5012861;28;20212;-64
2023/05/14 12:27:27;;;;;;;0.00;0.00;;;20.50;68.30;;;;;;5011514;28;20062;-62
2023/05/14 12:30:04;;;;;;;2.67;0.85;;;20.50;68.20;;;;;;4994896;28;20499;-62
2023/05/14 12:32:34;;;;;;;0.00;0.00;;;20.50;68.20;;;;;;5012677;28;20042;-62
2023/05/14 12:35:00;;;;;;;0.00;0.00;;;20.50;67.90;;;;;;5012758;28;20108;-63
2023/05/14 12:37:26;;;;;;;0.00;0.00;;;20.60;68.60;;;;;;5012568;28;20454;-62
2023/05/14 12:39:52;;;;;;;0.00;0.00;;;20.60;67.60;;;;;;5011466;28;20042;-62
2023/05/14 12:42:18;;;;;;;0.00;0.00;;;20.70;67.50;;;;;;5011409;28;20124;-64
2023/05/14 12:44:43;;;;;;;0.05;0.05;;;20.80;67.80;;;;;;5011330;28;20137;-62
2023/05/14 12:47:09;;;;;;;0.00;0.00;;;20.80;67.30;;;;;;5011169;28;20057;-63